createdAt,value
2023-02-26T00:02:11.643Z,97.75
2023-02-26T00:04:42.978Z,97.13
2023-02-26T00:07:14.244Z,97.16
2023-02-26T00:09:45.575Z,97.61
2023-02-26T00:12:17.111Z,97.39
2023-02-26T00:14:49.053Z,98.25
2023-02-26T00:17:26.900Z,97.19
2023-02-26T00:19:58.749Z,97.50
2023-02-26T00:22:30.345Z,98.30
2023-02-26T00:25:01.778Z,97.80
2023-02-26T00:27:33.079Z,97.29
2023-02-26T00:30:07.898Z,97.27
2023-02-26T00:32:39.976Z,98.08
2023-02-26T00:35:14.573Z,98.12
2023-02-26T00:38:00.215Z,97.06
2023-02-26T00:40:44.240Z,97.52
2023-02-26T00:43:18.795Z,97.75
2023-02-26T00:46:13.841Z,98.19
2023-02-26T00:49:16.262Z,98.46
2023-02-26T00:51:51.921Z,97.57
2023-02-26T00:54:28.470Z,97.45
2023-02-26T00:56:59.757Z,98.46
2023-02-26T00:59:31.324Z,97.69
2023-02-26T01:02:02.665Z,98.03
2023-02-26T01:04:34.293Z,97.97
2023-02-26T01:07:06.976Z,98.08
2023-02-26T01:09:38.710Z,98.14
2023-02-26T01:12:13.187Z,97.18
2023-02-26T01:14:47.187Z,97.47
2023-02-26T01:17:25.113Z,97.79
2023-02-26T01:20:09.128Z,98.31
2023-02-26T01:22:55.571Z,97.76
2023-02-26T01:25:34.830Z,97.92
2023-02-26T01:28:06.440Z,98.40
2023-02-26T01:30:38.255Z,97.29
2023-02-26T01:33:22.081Z,98.38
2023-02-26T01:36:00.088Z,98.23
2023-02-26T01:39:06.181Z,97.46
2023-02-26T01:41:45.942Z,97.53
2023-02-26T01:44:28.344Z,97.72
2023-02-26T01:47:26.185Z,98.34
2023-02-26T01:49:59.007Z,97.90
2023-02-26T01:53:02.120Z,98.24
2023-02-26T01:55:33.471Z,97.85
2023-02-26T01:58:05.816Z,98.08
2023-02-26T02:00:37.220Z,98.20
2023-02-26T02:03:10.337Z,97.41
2023-02-26T02:05:46.051Z,97.41
2023-02-26T02:08:19.214Z,98.00
2023-02-26T02:10:51.455Z,97.54
2023-02-26T02:13:50.164Z,98.08
2023-02-26T02:16:40.119Z,97.07
2023-02-26T02:19:49.121Z,98.03
2023-02-26T02:22:45.062Z,97.90
2023-02-26T02:25:19.282Z,97.85
2023-02-26T02:28:14.043Z,97.41
2023-02-26T02:31:26.989Z,97.28
2023-02-26T02:34:12.016Z,98.04
2023-02-26T02:36:51.514Z,97.87
2023-02-26T02:39:28.474Z,98.20
2023-02-26T02:42:35.403Z,97.57
2023-02-26T02:45:29.646Z,97.69
2023-02-26T02:48:13.809Z,98.14
2023-02-26T02:50:55.408Z,98.04
2023-02-26T02:53:36.410Z,97.61
2023-02-26T02:56:19.961Z,98.15
2023-02-26T02:59:03.010Z,98.50
2023-02-26T03:01:35.979Z,97.32
2023-02-26T03:04:11.241Z,97.68
2023-02-26T03:06:43.254Z,97.57
2023-02-26T03:09:14.522Z,97.90
2023-02-26T03:11:46.044Z,97.63
2023-02-26T03:14:18.302Z,98.12
2023-02-26T03:16:58.441Z,98.59
2023-02-26T03:20:13.670Z,98.54
2023-02-26T03:22:48.001Z,98.21
2023-02-26T03:25:27.069Z,97.75
2023-02-26T03:28:08.728Z,97.64
2023-02-26T03:30:53.533Z,98.66
2023-02-26T03:33:50.561Z,97.73
2023-02-26T03:36:31.320Z,97.86
2023-02-26T03:39:16.224Z,98.69
2023-02-26T03:41:55.975Z,98.06
2023-02-26T03:44:33.680Z,98.24
2023-02-26T03:47:10.161Z,98.40
2023-02-26T03:49:53.121Z,98.64
2023-02-26T03:52:28.723Z,98.05
2023-02-26T03:55:33.100Z,98.68
2023-02-26T03:58:04.748Z,98.18
2023-02-26T04:00:40.318Z,97.40
2023-02-26T04:04:02.048Z,98.28
2023-02-26T04:06:34.854Z,98.29
2023-02-26T04:09:06.577Z,98.18
2023-02-26T04:11:39.445Z,97.70
2023-02-26T04:14:10.916Z,97.86
2023-02-26T04:16:44.014Z,98.17
2023-02-26T04:19:15.498Z,97.55
2023-02-26T04:21:46.858Z,98.23
2023-02-26T04:24:18.178Z,98.33
2023-02-26T04:26:49.619Z,98.77
2023-02-26T04:29:20.873Z,98.54
2023-02-26T04:31:52.733Z,98.57
2023-02-26T04:34:24.064Z,98.14
2023-02-26T04:36:55.362Z,98.55
2023-02-26T04:39:26.669Z,97.67
2023-02-26T04:41:57.932Z,97.96
2023-02-26T04:44:29.223Z,97.84
2023-02-26T04:47:00.568Z,98.38
2023-02-26T04:49:31.901Z,98.31
2023-02-26T04:52:03.454Z,98.24
2023-02-26T04:54:34.863Z,97.98
2023-02-26T04:57:06.166Z,98.02
2023-02-26T04:59:38.773Z,97.08
2023-02-26T05:02:10.083Z,97.19
2023-02-26T05:04:41.430Z,97.93
2023-02-26T05:07:12.698Z,97.15
2023-02-26T05:09:43.988Z,97.51
2023-02-26T05:12:16.002Z,97.44
2023-02-26T05:14:47.344Z,97.56
2023-02-26T05:17:18.612Z,96.89
2023-02-26T05:19:49.903Z,97.96
2023-02-26T05:22:21.231Z,97.93
2023-02-26T05:24:52.489Z,96.83
2023-02-26T05:27:23.873Z,97.64
2023-02-26T05:29:55.132Z,97.27
2023-02-26T05:32:26.623Z,97.62
2023-02-26T05:34:57.922Z,97.47
2023-02-26T05:37:29.263Z,97.30
2023-02-26T05:40:00.540Z,97.71
2023-02-26T05:42:31.959Z,97.05
2023-02-26T05:45:06.012Z,97.64
2023-02-26T05:47:37.482Z,97.70
2023-02-26T05:50:09.678Z,97.81
2023-02-26T05:52:41.196Z,97.40
2023-02-26T05:55:12.459Z,97.70
2023-02-26T05:57:43.826Z,97.38
2023-02-26T06:00:15.498Z,97.64
2023-02-26T06:02:46.841Z,97.26
2023-02-26T06:05:18.427Z,97.71
2023-02-26T06:07:49.730Z,97.75
2023-02-26T06:10:21.068Z,98.12
2023-02-26T06:12:52.356Z,97.22
2023-02-26T06:15:24.134Z,97.49
2023-02-26T06:17:55.451Z,98.04
2023-02-26T06:20:26.925Z,97.63
2023-02-26T06:22:58.201Z,97.94
2023-02-26T06:25:29.473Z,96.99
2023-02-26T06:28:00.748Z,97.43
2023-02-26T06:30:32.185Z,96.71
2023-02-26T06:33:03.624Z,97.11
2023-02-26T06:35:35.002Z,97.40
2023-02-26T06:38:06.472Z,97.08
2023-02-26T06:40:37.866Z,97.24
2023-02-26T06:43:09.144Z,96.94
2023-02-26T06:45:40.499Z,97.18
2023-02-26T06:48:12.278Z,97.35
2023-02-26T06:50:43.539Z,97.70
2023-02-26T06:53:14.880Z,97.87
2023-02-26T06:55:49.552Z,98.00
2023-02-26T06:58:21.550Z,97.76
2023-02-26T07:00:52.862Z,98.31
2023-02-26T07:03:24.286Z,98.47
2023-02-26T07:05:55.733Z,98.48
2023-02-26T07:08:27.013Z,98.63
2023-02-26T07:10:58.261Z,98.17
2023-02-26T07:13:29.551Z,98.46
2023-02-26T07:16:00.815Z,98.34
2023-02-26T07:18:32.102Z,98.42
2023-02-26T07:21:04.611Z,98.09
2023-02-26T07:23:35.912Z,98.76
2023-02-26T07:26:08.859Z,98.07
2023-02-26T07:28:40.203Z,97.63
2023-02-26T07:31:11.591Z,98.90
2023-02-26T07:33:43.530Z,98.42
2023-02-26T07:36:15.001Z,97.72
2023-02-26T07:38:46.292Z,98.61
2023-02-26T07:41:17.707Z,98.52
2023-02-26T07:43:49.179Z,97.85
2023-02-26T07:46:20.480Z,98.65
2023-02-26T07:48:51.792Z,98.10
2023-02-26T07:51:23.298Z,98.54
2023-02-26T07:53:54.744Z,98.32
2023-02-26T07:56:26.374Z,98.50
2023-02-26T07:58:57.791Z,97.74
2023-02-26T08:01:29.143Z,98.00
2023-02-26T08:04:00.920Z,98.51
2023-02-26T08:06:32.234Z,98.23
2023-02-26T08:09:03.973Z,97.94
2023-02-26T08:11:39.545Z,97.84
2023-02-26T08:14:11.820Z,98.08
2023-02-26T08:16:43.464Z,97.97
2023-02-26T08:19:14.967Z,97.93
2023-02-26T08:21:46.323Z,97.92
2023-02-26T08:24:17.688Z,97.82
2023-02-26T08:26:49.261Z,98.04
2023-02-26T08:29:20.807Z,97.63
2023-02-26T08:31:52.551Z,97.99
2023-02-26T08:34:24.463Z,97.47
2023-02-26T08:36:55.724Z,98.29
2023-02-26T08:39:26.991Z,97.53
2023-02-26T08:41:58.252Z,97.72
2023-02-26T08:44:29.500Z,97.52
2023-02-26T08:47:00.911Z,97.47
2023-02-26T08:49:32.264Z,97.12
2023-02-26T08:52:03.873Z,97.26
2023-02-26T08:54:35.285Z,97.32
2023-02-26T08:57:06.750Z,97.28
2023-02-26T08:59:38.025Z,97.11
2023-02-26T09:02:13.031Z,97.32
2023-02-26T09:04:44.361Z,96.43
2023-02-26T09:07:15.689Z,96.09
2023-02-26T09:09:46.994Z,95.43
2023-02-26T09:12:18.399Z,96.46
2023-02-26T09:14:49.643Z,96.66
2023-02-26T09:17:20.911Z,96.28
2023-02-26T09:19:52.204Z,96.67
2023-02-26T09:22:23.562Z,95.80
2023-02-26T09:24:54.871Z,95.80
2023-02-26T09:27:26.538Z,96.28
2023-02-26T09:29:57.896Z,95.56
2023-02-26T09:32:29.431Z,94.92
2023-02-26T09:35:00.948Z,95.17
2023-02-26T09:37:32.610Z,95.40
2023-02-26T09:40:04.456Z,95.72
2023-02-26T09:42:52.775Z,94.48
2023-02-26T09:45:42.350Z,95.05
2023-02-26T09:48:18.690Z,95.16
2023-02-26T09:50:53.548Z,95.04
2023-02-26T09:53:34.104Z,94.23
2023-02-26T09:56:10.829Z,94.99
2023-02-26T09:58:44.118Z,94.62
2023-02-26T10:01:57.143Z,93.79
2023-02-26T10:05:16.176Z,93.78
2023-02-26T10:08:05.799Z,93.92
2023-02-26T10:11:13.201Z,93.37
2023-02-26T10:13:57.664Z,92.89
2023-02-26T10:16:37.537Z,92.25
2023-02-26T10:19:19.431Z,92.80
2023-02-26T10:21:59.049Z,92.36
2023-02-26T10:24:45.398Z,92.00
2023-02-26T10:27:22.416Z,91.72
2023-02-26T10:30:13.855Z,92.25
2023-02-26T10:33:03.784Z,91.58
2023-02-26T10:35:43.073Z,90.97
2023-02-26T10:38:20.407Z,90.60
2023-02-26T10:41:02.056Z,90.48
2023-02-26T10:43:45.039Z,90.44
2023-02-26T10:46:25.993Z,91.16
2023-02-26T10:49:17.875Z,90.95
2023-02-26T10:51:49.249Z,90.61
2023-02-26T10:54:45.219Z,90.76
2023-02-26T10:57:24.237Z,89.61
2023-02-26T10:59:55.507Z,90.67
2023-02-26T11:02:36.711Z,90.58
2023-02-26T11:05:17.632Z,90.29
2023-02-26T11:07:54.624Z,89.58
2023-02-26T11:10:40.168Z,90.22
2023-02-26T11:13:12.460Z,90.15
2023-02-26T11:15:48.672Z,89.52
2023-02-26T11:18:43.886Z,89.79
2023-02-26T11:21:22.434Z,90.43
2023-02-26T11:24:01.648Z,89.57
2023-02-26T11:26:36.557Z,89.50
2023-02-26T11:29:15.422Z,91.04
2023-02-26T11:31:57.968Z,90.64
2023-02-26T11:34:30.008Z,90.29
2023-02-26T11:37:02.251Z,91.53
2023-02-26T11:39:36.663Z,91.57
2023-02-26T11:42:07.963Z,91.98
2023-02-26T11:44:45.777Z,92.87
2023-02-26T11:47:24.700Z,92.29
2023-02-26T11:50:04.518Z,92.73
2023-02-26T11:52:41.826Z,92.64
2023-02-26T11:55:28.693Z,91.61
2023-02-26T11:57:59.970Z,92.19
2023-02-26T12:00:36.277Z,92.77
2023-02-26T12:03:14.761Z,92.26
2023-02-26T12:05:46.754Z,92.17
2023-02-26T12:08:38.701Z,91.94
2023-02-26T12:11:44.136Z,90.87
2023-02-26T12:14:52.873Z,91.47
2023-02-26T12:17:54.360Z,91.39
2023-02-26T12:20:25.584Z,90.49
2023-02-26T12:23:15.370Z,91.24
2023-02-26T12:25:52.679Z,91.82
2023-02-26T12:28:35.780Z,91.02
2023-02-26T12:31:48.395Z,91.04
2023-02-26T12:34:43.921Z,90.06
2023-02-26T12:37:42.502Z,90.71
2023-02-26T12:40:53.746Z,92.13
2023-02-26T12:43:45.858Z,91.96
2023-02-26T12:46:41.802Z,91.03
2023-02-26T12:49:39.051Z,91.57
2023-02-26T12:52:36.077Z,91.11
2023-02-26T12:55:24.170Z,91.81
2023-02-26T12:58:25.894Z,92.16
2023-02-26T13:01:17.407Z,92.77
2023-02-26T13:04:15.131Z,93.48
2023-02-26T13:07:01.574Z,93.89
2023-02-26T13:09:55.656Z,94.32
2023-02-26T13:12:40.545Z,96.06
2023-02-26T13:15:17.897Z,96.23
2023-02-26T13:17:57.264Z,96.33
2023-02-26T13:20:29.165Z,96.53
2023-02-26T13:23:11.814Z,95.84
2023-02-26T13:25:51.682Z,96.46
2023-02-26T13:28:40.586Z,96.71
2023-02-26T13:31:18.745Z,97.09
2023-02-26T13:33:53.116Z,96.87
2023-02-26T13:36:27.534Z,96.87
2023-02-26T13:39:21.522Z,96.24
2023-02-26T13:42:00.126Z,96.23
2023-02-26T13:45:05.165Z,96.49
2023-02-26T13:48:00.994Z,95.47
2023-02-26T13:50:35.063Z,95.83
2023-02-26T13:53:28.970Z,96.11
2023-02-26T13:56:13.296Z,95.54
2023-02-26T13:58:51.586Z,93.91
2023-02-26T14:01:34.150Z,94.98
2023-02-26T14:04:14.389Z,94.86
2023-02-26T14:06:48.586Z,94.94
2023-02-26T14:09:22.602Z,95.50
2023-02-26T14:12:12.813Z,95.12
2023-02-26T14:15:00.160Z,95.17
2023-02-26T14:17:34.232Z,95.12
2023-02-26T14:20:25.270Z,95.16
2023-02-26T14:23:07.767Z,94.81
2023-02-26T14:25:46.600Z,94.65
2023-02-26T14:28:19.519Z,94.13
2023-02-26T14:31:04.699Z,94.51
2023-02-26T14:33:57.326Z,93.98
2023-02-26T14:36:37.798Z,93.96
2023-02-26T14:39:22.228Z,93.35
2023-02-26T14:42:01.751Z,92.97
2023-02-26T14:44:43.863Z,91.71
2023-02-26T14:47:16.253Z,92.25
2023-02-26T14:49:49.440Z,93.65
2023-02-26T14:52:51.912Z,93.37
2023-02-26T14:55:54.817Z,92.82
2023-02-26T14:58:40.214Z,93.72
2023-02-26T15:01:21.865Z,93.00
2023-02-26T15:04:17.694Z,93.43
2023-02-26T15:07:07.904Z,93.01
2023-02-26T15:10:06.330Z,92.30
2023-02-26T15:12:55.648Z,92.44
2023-02-26T15:15:47.867Z,92.22
2023-02-26T15:18:40.342Z,92.86
2023-02-26T15:21:47.231Z,92.58
2023-02-26T15:24:19.248Z,93.23
2023-02-26T15:26:59.954Z,92.03
2023-02-26T15:29:35.362Z,92.40
2023-02-26T15:32:28.288Z,92.38
2023-02-26T15:35:04.651Z,92.63
2023-02-26T15:37:36.051Z,92.31
2023-02-26T15:40:08.676Z,92.83
2023-02-26T15:42:42.967Z,92.83
2023-02-26T15:45:26.348Z,92.63
2023-02-26T15:48:01.744Z,92.99
2023-02-26T15:50:36.924Z,91.64
2023-02-26T15:53:12.973Z,92.78
2023-02-26T15:55:51.461Z,91.90
2023-02-26T15:58:45.131Z,92.28
2023-02-26T16:01:20.041Z,91.96
2023-02-26T16:03:53.678Z,92.72
2023-02-26T16:06:37.910Z,92.09
2023-02-26T16:09:19.638Z,92.36
2023-02-26T16:11:55.250Z,91.49
2023-02-26T16:14:33.937Z,91.49
2023-02-26T16:17:08.052Z,91.93
2023-02-26T16:19:46.334Z,91.00
2023-02-26T16:22:33.490Z,90.99
2023-02-26T16:25:12.534Z,90.18
2023-02-26T16:27:47.646Z,90.86
2023-02-26T16:30:22.605Z,91.55
2023-02-26T16:32:55.433Z,90.94
2023-02-26T16:35:34.596Z,90.97
2023-02-26T16:38:17.099Z,90.68
2023-02-26T16:40:57.575Z,90.23
2023-02-26T16:43:35.349Z,91.29
2023-02-26T16:46:07.104Z,90.25
2023-02-26T16:48:48.539Z,89.97
2023-02-26T16:51:23.062Z,90.58
2023-02-26T16:54:02.958Z,90.55
2023-02-26T16:56:39.695Z,89.88
2023-02-26T16:59:16.777Z,90.08
2023-02-26T17:02:13.354Z,89.54
2023-02-26T17:04:50.402Z,90.71
2023-02-26T17:07:32.839Z,90.60
2023-02-26T17:10:16.478Z,89.77
2023-02-26T17:12:53.215Z,89.66
2023-02-26T17:15:32.022Z,90.13
2023-02-26T17:18:03.894Z,90.03
2023-02-26T17:20:36.499Z,90.11
2023-02-26T17:23:09.255Z,89.87
2023-02-26T17:25:47.228Z,89.91
2023-02-26T17:28:25.632Z,89.38
2023-02-26T17:30:57.761Z,90.12
2023-02-26T17:33:29.551Z,89.84
2023-02-26T17:36:03.870Z,89.66
2023-02-26T17:38:35.129Z,89.81
2023-02-26T17:41:06.414Z,89.50
2023-02-26T17:43:37.687Z,88.94
2023-02-26T17:46:12.045Z,89.17
2023-02-26T17:48:43.360Z,88.82
2023-02-26T17:51:16.168Z,89.44
2023-02-26T17:53:47.461Z,88.67
2023-02-26T17:56:26.700Z,88.96
2023-02-26T17:58:59.616Z,89.32
2023-02-26T18:01:31.158Z,89.29
2023-02-26T18:04:03.558Z,89.63
2023-02-26T18:06:37.141Z,89.21
2023-02-26T18:09:11.698Z,89.37
2023-02-26T18:11:43.146Z,88.94
2023-02-26T18:14:14.424Z,88.96
2023-02-26T18:16:46.718Z,89.63
2023-02-26T18:19:18.077Z,88.95
2023-02-26T18:21:49.342Z,89.30
2023-02-26T18:24:20.637Z,88.99
2023-02-26T18:26:52.693Z,89.32
2023-02-26T18:29:23.946Z,89.03
2023-02-26T18:31:55.376Z,88.78
2023-02-26T18:34:26.910Z,88.84
2023-02-26T18:36:58.332Z,89.04
2023-02-26T18:39:32.476Z,88.98
2023-02-26T18:42:04.931Z,89.35
2023-02-26T18:44:36.395Z,88.77
2023-02-26T18:47:08.616Z,88.88
2023-02-26T18:49:39.982Z,88.88
2023-02-26T18:52:13.033Z,88.67
2023-02-26T18:54:45.086Z,89.08
2023-02-26T18:57:16.996Z,89.22
2023-02-26T18:59:48.478Z,89.07
2023-02-26T19:02:20.960Z,88.98
2023-02-26T19:04:52.956Z,89.13
2023-02-26T19:07:24.252Z,89.49
2023-02-26T19:09:55.516Z,89.56
2023-02-26T19:12:26.777Z,89.43
2023-02-26T19:15:11.306Z,89.20
2023-02-26T19:17:42.653Z,89.70
2023-02-26T19:20:14.227Z,89.50
2023-02-26T19:22:46.508Z,89.67
2023-02-26T19:25:24.306Z,90.05
2023-02-26T19:27:55.991Z,89.17
2023-02-26T19:30:27.381Z,90.35
2023-02-26T19:32:58.664Z,89.37
2023-02-26T19:35:30.665Z,90.10
2023-02-26T19:38:01.974Z,90.00
2023-02-26T19:40:33.471Z,90.16
2023-02-26T19:43:04.757Z,90.30
2023-02-26T19:45:36.740Z,90.40
2023-02-26T19:48:08.492Z,89.61
2023-02-26T19:50:40.311Z,89.95
2023-02-26T19:53:15.793Z,89.94
2023-02-26T19:55:54.423Z,90.70
2023-02-26T19:58:30.357Z,89.68
2023-02-26T20:01:04.510Z,90.29
2023-02-26T20:03:36.008Z,89.68
2023-02-26T20:06:08.314Z,90.27
2023-02-26T20:08:40.818Z,90.25
2023-02-26T20:11:12.482Z,91.33
2023-02-26T20:13:44.047Z,90.75
2023-02-26T20:16:16.262Z,90.76
2023-02-26T20:18:47.718Z,91.05
2023-02-26T20:21:19.072Z,90.96
2023-02-26T20:23:50.363Z,91.06
2023-02-26T20:26:21.674Z,90.90
2023-02-26T20:28:52.979Z,91.17
2023-02-26T20:31:24.471Z,90.85
2023-02-26T20:33:56.627Z,91.10
2023-02-26T20:36:27.893Z,91.18
2023-02-26T20:39:02.098Z,90.46
2023-02-26T20:41:33.367Z,90.48
2023-02-26T20:44:04.787Z,91.56
2023-02-26T20:46:38.725Z,90.66
2023-02-26T20:49:11.548Z,90.94
2023-02-26T20:51:43.792Z,91.66
2023-02-26T20:54:16.174Z,90.95
2023-02-26T20:56:48.720Z,91.74
2023-02-26T20:59:20.110Z,91.78
2023-02-26T21:01:53.169Z,91.29
2023-02-26T21:04:24.651Z,91.98
2023-02-26T21:07:12.363Z,91.20
2023-02-26T21:09:44.294Z,91.83
2023-02-26T21:12:16.467Z,92.15
2023-02-26T21:14:50.131Z,92.26
2023-02-26T21:17:25.852Z,92.42
2023-02-26T21:19:57.146Z,92.61
2023-02-26T21:22:28.397Z,91.98
2023-02-26T21:24:59.642Z,92.40
2023-02-26T21:27:31.100Z,91.64
2023-02-26T21:30:04.247Z,91.69
2023-02-26T21:32:35.852Z,92.01
2023-02-26T21:35:09.174Z,92.22
2023-02-26T21:37:40.450Z,92.12
2023-02-26T21:40:14.438Z,92.16
2023-02-26T21:42:45.737Z,92.35
2023-02-26T21:45:17.089Z,91.67
2023-02-26T21:47:48.428Z,92.43
2023-02-26T21:50:20.019Z,92.31
2023-02-26T21:52:51.376Z,92.44
2023-02-26T21:55:22.789Z,91.88
2023-02-26T21:57:54.031Z,92.20
2023-02-26T22:00:26.086Z,91.76
2023-02-26T22:02:58.073Z,91.96
2023-02-26T22:05:29.357Z,91.96
2023-02-26T22:08:00.653Z,92.57
2023-02-26T22:10:32.061Z,91.88
2023-02-26T22:13:03.450Z,91.80
2023-02-26T22:15:34.798Z,91.70
2023-02-26T22:18:06.205Z,92.14
2023-02-26T22:20:37.698Z,92.45
2023-02-26T22:23:09.042Z,92.49
2023-02-26T22:25:40.391Z,92.52
2023-02-26T22:28:11.975Z,92.13
2023-02-26T22:30:43.274Z,92.65
2023-02-26T22:33:14.698Z,92.00
2023-02-26T22:35:45.991Z,92.09
2023-02-26T22:38:17.365Z,93.00
2023-02-26T22:40:48.643Z,92.41
2023-02-26T22:43:20.604Z,92.71
2023-02-26T22:45:51.966Z,92.44
2023-02-26T22:48:23.258Z,91.99
2023-02-26T22:50:54.588Z,92.21
2023-02-26T22:53:25.869Z,92.49
2023-02-26T22:55:58.258Z,92.57
2023-02-26T22:58:29.539Z,92.32
2023-02-26T23:01:05.192Z,92.55
2023-02-26T23:03:36.635Z,92.15
2023-02-26T23:06:08.577Z,92.38
2023-02-26T23:08:40.240Z,91.96
2023-02-26T23:11:11.533Z,92.47
2023-02-26T23:13:42.804Z,92.74
2023-02-26T23:16:14.300Z,92.45
2023-02-26T23:18:47.957Z,92.04
2023-02-26T23:21:19.412Z,92.37
2023-02-26T23:23:50.754Z,92.60
2023-02-26T23:26:22.046Z,92.46
2023-02-26T23:28:53.341Z,92.24
2023-02-26T23:31:25.291Z,92.64
2023-02-26T23:33:56.951Z,92.38
2023-02-26T23:36:28.260Z,92.68
2023-02-26T23:38:59.645Z,92.71
2023-02-26T23:41:31.058Z,92.18
2023-02-26T23:44:02.312Z,92.29
2023-02-26T23:46:33.684Z,92.82
2023-02-26T23:49:05.102Z,92.58
2023-02-26T23:51:38.284Z,92.35
2023-02-26T23:54:09.755Z,92.55
2023-02-26T23:56:41.151Z,92.60
2023-02-26T23:59:12.497Z,92.44
